Kenner, LA

1:49 PM CDT on June 23, 2017 (GMT -0500)
Driftwood | | Change Station
Active Advisory: Coastal Flood Advisory Active Notice: Coastal Flood Advisory

Elev 7 ft 30.03 °N, 90.23 °W | Updated 12 seconds ago

Mostly Cloudy
Mostly Cloudy
88.2 °F
Feels Like 106 °F
N
9.6
Wind Variable Wind from SW
Gusts 9.8 mph

Today
High -- | Low -- °F
--% Chance of Precip.
Yesterday
High -- | Low -- °F
Precip. -- in
Pressure 29.94 in
Visibility 10.0 miles
Clouds Few 2600 ft
Scattered Clouds 3300 ft
Mostly Cloudy 4000 ft
Heat Index 106 °F
Dew Point 80 °F
Humidity 78%
Rainfall 0.09 in
Snow Depth Not available.
6:00 AM 8:05 PM
Waning Crescent, 0% visible
METAR KMSY 231753Z 18015KT 10SM FEW026 SCT033 BKN040 31/26 A2993 RMK AO2 RAE1656 SLP138 TCU DSNT W-NW P0000 60000 T03110256 10311 20272 58003
Pressure 29.94 in
Visibility 10.0 miles
Clouds Few 2600 ft
Scattered Clouds 3300 ft
Mostly Cloudy 4000 ft
Heat Index 106 °F
Dew Point 80 °F
Humidity 78%
Rainfall 0.09 in
Snow Depth Not available.
6:00 AM 8:05 PM
Waning Crescent, 0% visible
METAR KMSY 231753Z 18015KT 10SM FEW026 SCT033 BKN040 31/26 A2993 RMK AO2 RAE1656 SLP138 TCU DSNT W-NW P0000 60000 T03110256 10311 20272 58003

Get Your Daily Forecast Email!

Thanks for signing up!

Be on the lookout for a verification email in your inbox.

You'll start receiving severe weather alerts in your inbox..

×

10-Day Weather Forecast

Almanac

Astronomy

Jun. 23, 2017 Rise Set
Actual Time
Civil Twilight
Nautical Twilight
Astronomical Twilight
Moon
Length of Visible Light
Length of Day
Tomorrow will be .
, % of the Moon is Illuminated

Today's Extremes

State Highs State Lows

Community

WunderPhotos

Category 6

Welcome to Category 6. This is the collective home for Weather Underground's featured writeups by Dr. Jeff Masters (right), Bob Henson (left), Chris Burt, and other regular contributors.

Nearby

Air Quality

  Air Quality AQ Index Pollutant
Not available.

Snow Depth

Station Depth Elevation

Earthquake Activity

City Distance Mag. Time & Date
Minimum magnitude displayed is 2.5.

Coastal Water Temperatures

Place Temperature

Stations

Nearby Weather Stations

Station Location Temp. Windchill Dew Point Humidity Wind Precip. Elev Updated Type
                   

Watches & Warnings

Coastal Flood Advisory
Issued: 10:51 AM CDT Jun. 23, 2017 – National Weather Service

... Coastal flood advisory remains in effect until 4 PM CDT this
afternoon...

* coastal flooding... tides 1 to 2 feet above normal will
continue through todays high tide.

* Timing... starting during the morning through this afternoon.

* Impacts... minor inundation of low lying areas and access roads
near tidal lakes... bays and inlets as well as the open coast
outside hurricane protection levee systems.

Precautionary/preparedness actions...

A coastal flood advisory indicates that onshore winds and tides
will combine to generate flooding of low areas along the shore.



24/rr